sensor_id;sensor_type;location;lat;lon;timestamp;pressure;altitude;pressure_sealevel;temperature;humidity
69153;BME280;56261;51.580;4.578;2024-01-06T00:02:27;100533.97;;;6.67;100.00
69153;BME280;56261;51.580;4.578;2024-01-06T00:04:53;100532.91;;;6.59;100.00
69153;BME280;56261;51.580;4.578;2024-01-06T00:07:18;100541.78;;;6.68;100.00
69153;BME280;56261;51.580;4.578;2024-01-06T00:09:43;100539.50;;;6.55;100.00
69153;BME280;56261;51.580;4.578;2024-01-06T00:12:09;100541.13;;;6.56;100.00
69153;BME280;56261;51.580;4.578;2024-01-06T00:14:34;100540.91;;;6.50;100.00
69153;BME280;56261;51.580;4.578;2024-01-06T00:17:00;100544.41;;;6.50;100.00
69153;BME280;56261;51.580;4.578;2024-01-06T00:19:25;100552.88;;;6.54;100.00
69153;BME280;56261;51.580;4.578;2024-01-06T00:21:51;100562.97;;;6.50;100.00
69153;BME280;56261;51.580;4.578;2024-01-06T00:24:16;100554.47;;;6.47;100.00
69153;BME280;56261;51.580;4.578;2024-01-06T00:26:41;100558.94;;;6.46;100.00
69153;BME280;56261;51.580;4.578;2024-01-06T00:29:07;100555.59;;;6.44;100.00
69153;BME280;56261;51.580;4.578;2024-01-06T00:31:32;100560.66;;;6.37;100.00
69153;BME280;56261;51.580;4.578;2024-01-06T00:33:57;100561.66;;;6.36;100.00
69153;BME280;56261;51.580;4.578;2024-01-06T00:36:23;100569.31;;;6.39;100.00
69153;BME280;56261;51.580;4.578;2024-01-06T00:38:48;100571.25;;;6.37;100.00
69153;BME280;56261;51.580;4.578;2024-01-06T00:41:14;100580.03;;;6.38;100.00
69153;BME280;56261;51.580;4.578;2024-01-06T00:43:39;100579.06;;;6.39;100.00
69153;BME280;56261;51.580;4.578;2024-01-06T00:46:05;100568.00;;;6.26;100.00
69153;BME280;56261;51.580;4.578;2024-01-06T00:48:30;100583.13;;;6.33;100.00
69153;BME280;56261;51.580;4.578;2024-01-06T00:50:55;100579.09;;;6.29;100.00
69153;BME280;56261;51.580;4.578;2024-01-06T00:53:21;100588.16;;;6.36;100.00
69153;BME280;56261;51.580;4.578;2024-01-06T00:55:47;100595.78;;;6.39;100.00
69153;BME280;56261;51.580;4.578;2024-01-06T00:58:12;100603.63;;;6.31;100.00
69153;BME280;56261;51.580;4.578;2024-01-06T01:00:38;100609.88;;;6.40;100.00
69153;BME280;56261;51.580;4.578;2024-01-06T01:03:03;100607.72;;;6.26;100.00
69153;BME280;56261;51.580;4.578;2024-01-06T01:05:29;100614.66;;;6.27;100.00
69153;BME280;56261;51.580;4.578;2024-01-06T01:07:54;100606.88;;;6.25;100.00
69153;BME280;56261;51.580;4.578;2024-01-06T01:10:19;100602.66;;;6.32;100.00
69153;BME280;56261;51.580;4.578;2024-01-06T01:12:45;100619.53;;;6.31;100.00
69153;BME280;56261;51.580;4.578;2024-01-06T01:15:10;100621.47;;;6.29;100.00
69153;BME280;56261;51.580;4.578;2024-01-06T01:17:35;100629.28;;;6.31;100.00
69153;BME280;56261;51.580;4.578;2024-01-06T01:20:02;100634.44;;;6.32;100.00
69153;BME280;56261;51.580;4.578;2024-01-06T01:22:28;100632.25;;;6.28;100.00
69153;BME280;56261;51.580;4.578;2024-01-06T01:24:53;100630.69;;;6.25;100.00
69153;BME280;56261;51.580;4.578;2024-01-06T01:27:18;100638.13;;;6.21;100.00
69153;BME280;56261;51.580;4.578;2024-01-06T01:29:44;100637.97;;;6.23;100.00
69153;BME280;56261;51.580;4.578;2024-01-06T01:32:09;100651.16;;;6.33;100.00
69153;BME280;56261;51.580;4.578;2024-01-06T01:34:34;100648.56;;;6.23;100.00
69153;BME280;56261;51.580;4.578;2024-01-06T01:37:00;100651.81;;;6.17;100.00
69153;BME280;56261;51.580;4.578;2024-01-06T01:39:25;100658.88;;;6.26;100.00
69153;BME280;56261;51.580;4.578;2024-01-06T01:41:51;100660.72;;;6.16;100.00
69153;BME280;56261;51.580;4.578;2024-01-06T01:44:16;100658.38;;;6.13;100.00
69153;BME280;56261;51.580;4.578;2024-01-06T01:46:41;100652.94;;;6.05;100.00
69153;BME280;56261;51.580;4.578;2024-01-06T01:49:07;100672.44;;;5.94;100.00
69153;BME280;56261;51.580;4.578;2024-01-06T01:51:35;100674.88;;;5.97;100.00
69153;BME280;56261;51.580;4.578;2024-01-06T01:54:02;100671.63;;;5.93;100.00
69153;BME280;56261;51.580;4.578;2024-01-06T01:56:32;100677.06;;;6.01;100.00
69153;BME280;56261;51.580;4.578;2024-01-06T01:59:06;100679.41;;;6.05;100.00
69153;BME280;56261;51.580;4.578;2024-01-06T02:01:34;100688.63;;;6.00;100.00
69153;BME280;56261;51.580;4.578;2024-01-06T02:03:59;100686.41;;;5.96;100.00
69153;BME280;56261;51.580;4.578;2024-01-06T02:06:24;100695.19;;;5.87;100.00
69153;BME280;56261;51.580;4.578;2024-01-06T02:08:50;100687.81;;;5.90;100.00
69153;BME280;56261;51.580;4.578;2024-01-06T02:11:15;100695.34;;;5.85;100.00
69153;BME280;56261;51.580;4.578;2024-01-06T02:13:41;100695.19;;;5.87;100.00
69153;BME280;56261;51.580;4.578;2024-01-06T02:16:06;100694.66;;;5.83;100.00
69153;BME280;56261;51.580;4.578;2024-01-06T02:18:32;100691.97;;;5.93;100.00
69153;BME280;56261;51.580;4.578;2024-01-06T02:20:59;100705.50;;;5.80;100.00
69153;BME280;56261;51.580;4.578;2024-01-06T02:23:25;100717.63;;;5.73;100.00
69153;BME280;56261;51.580;4.578;2024-01-06T02:25:51;100713.59;;;5.69;100.00
69153;BME280;56261;51.580;4.578;2024-01-06T02:28:16;100709.81;;;5.71;100.00
69153;BME280;56261;51.580;4.578;2024-01-06T02:30:42;100712.50;;;5.61;100.00
69153;BME280;56261;51.580;4.578;2024-01-06T02:33:07;100721.44;;;5.60;100.00
69153;BME280;56261;51.580;4.578;2024-01-06T02:35:33;100712.25;;;5.45;100.00
69153;BME280;56261;51.580;4.578;2024-01-06T02:37:58;100720.88;;;5.47;100.00
69153;BME280;56261;51.580;4.578;2024-01-06T02:40:24;100721.28;;;5.43;100.00
69153;BME280;56261;51.580;4.578;2024-01-06T02:42:49;100721.13;;;5.44;100.00
69153;BME280;56261;51.580;4.578;2024-01-06T02:45:14;100726.28;;;5.55;100.00
69153;BME280;56261;51.580;4.578;2024-01-06T02:47:40;100734.94;;;5.48;100.00
69153;BME280;56261;51.580;4.578;2024-01-06T02:50:05;100736.88;;;5.46;100.00
69153;BME280;56261;51.580;4.578;2024-01-06T02:52:31;100734.63;;;5.51;100.00
69153;BME280;56261;51.580;4.578;2024-01-06T02:54:56;100740.63;;;5.43;100.00
69153;BME280;56261;51.580;4.578;2024-01-06T02:57:22;100744.25;;;5.42;100.00
69153;BME280;56261;51.580;4.578;2024-01-06T02:59:47;100757.06;;;5.37;100.00
69153;BME280;56261;51.580;4.578;2024-01-06T03:02:13;100754.81;;;5.42;100.00
69153;BME280;56261;51.580;4.578;2024-01-06T03:04:38;100747.59;;;5.44;100.00
69153;BME280;56261;51.580;4.578;2024-01-06T03:07:04;100758.56;;;5.39;100.00
69153;BME280;56261;51.580;4.578;2024-01-06T03:09:29;100749.13;;;5.37;100.00
69153;BME280;56261;51.580;4.578;2024-01-06T03:11:54;100765.25;;;5.44;100.00
69153;BME280;56261;51.580;4.578;2024-01-06T03:14:20;100768.75;;;5.44;100.00
69153;BME280;56261;51.580;4.578;2024-01-06T03:16:45;100769.03;;;5.51;100.00
69153;BME280;56261;51.580;4.578;2024-01-06T03:19:10;100771.94;;;5.57;100.00
69153;BME280;56261;51.580;4.578;2024-01-06T03:21:36;100774.47;;;5.49;100.00
69153;BME280;56261;51.580;4.578;2024-01-06T03:24:01;100775.59;;;5.56;100.00
69153;BME280;56261;51.580;4.578;2024-01-06T03:26:26;100774.88;;;5.54;100.00
69153;BME280;56261;51.580;4.578;2024-01-06T03:28:54;100782.13;;;5.52;100.00
69153;BME280;56261;51.580;4.578;2024-01-06T03:31:19;100780.03;;;5.46;100.00
69153;BME280;56261;51.580;4.578;2024-01-06T03:33:47;100781.69;;;5.57;100.00
69153;BME280;56261;51.580;4.578;2024-01-06T03:36:13;100777.13;;;5.49;100.00
69153;BME280;56261;51.580;4.578;2024-01-06T03:38:41;100784.06;;;5.50;100.00
69153;BME280;56261;51.580;4.578;2024-01-06T03:41:06;100792.53;;;5.44;100.00
69153;BME280;56261;51.580;4.578;2024-01-06T03:43:31;100790.31;;;5.39;100.00
69153;BME280;56261;51.580;4.578;2024-01-06T03:45:57;100796.44;;;5.40;100.00
69153;BME280;56261;51.580;4.578;2024-01-06T03:48:23;100808.13;;;5.37;100.00
69153;BME280;56261;51.580;4.578;2024-01-06T03:50:49;100804.34;;;5.20;100.00
69153;BME280;56261;51.580;4.578;2024-01-06T03:53:14;100796.25;;;5.22;100.00
69153;BME280;56261;51.580;4.578;2024-01-06T03:55:40;100812.00;;;5.24;100.00
69153;BME280;56261;51.580;4.578;2024-01-06T03:58:05;100812.56;;;5.27;100.00
69153;BME280;56261;51.580;4.578;2024-01-06T04:00:31;100814.06;;;5.20;100.00
69153;BME280;56261;51.580;4.578;2024-01-06T04:02:56;100825.50;;;5.20;100.00
69153;BME280;56261;51.580;4.578;2024-01-06T04:05:21;100830.75;;;5.11;100.00
69153;BME280;56261;51.580;4.578;2024-01-06T04:07:47;100829.91;;;5.10;100.00
69153;BME280;56261;51.580;4.578;2024-01-06T04:10:12;100840.50;;;5.10;100.00
69153;BME280;56261;51.580;4.578;2024-01-06T04:12:37;100838.66;;;5.01;100.00
69153;BME280;56261;51.580;4.578;2024-01-06T04:15:03;100839.75;;;4.98;100.00
69153;BME280;56261;51.580;4.578;2024-01-06T04:17:28;100847.41;;;5.02;100.00
69153;BME280;56261;51.580;4.578;2024-01-06T04:19:54;100842.25;;;5.00;100.00
69153;BME280;56261;51.580;4.578;2024-01-06T04:22:19;100850.88;;;5.02;100.00
69153;BME280;56261;51.580;4.578;2024-01-06T04:24:44;100852.69;;;5.02;100.00
69153;BME280;56261;51.580;4.578;2024-01-06T04:27:10;100852.53;;;4.93;100.00
69153;BME280;56261;51.580;4.578;2024-01-06T04:29:35;100849.59;;;4.87;100.00
69153;BME280;56261;51.580;4.578;2024-01-06T04:32:01;100857.66;;;4.85;100.00
69153;BME280;56261;51.580;4.578;2024-01-06T04:34:26;100854.41;;;4.82;100.00
69153;BME280;56261;51.580;4.578;2024-01-06T04:36:52;100868.09;;;4.87;100.00
69153;BME280;56261;51.580;4.578;2024-01-06T04:39:17;100865.81;;;4.82;100.00
69153;BME280;56261;51.580;4.578;2024-01-06T04:41:42;100868.16;;;4.75;100.00
69153;BME280;56261;51.580;4.578;2024-01-06T04:44:08;100878.59;;;4.77;100.00
69153;BME280;56261;51.580;4.578;2024-01-06T04:46:33;100873.44;;;4.75;100.00
69153;BME280;56261;51.580;4.578;2024-01-06T04:48:58;100881.63;;;4.72;100.00
69153;BME280;56261;51.580;4.578;2024-01-06T04:51:24;100878.16;;;4.72;100.00
69153;BME280;56261;51.580;4.578;2024-01-06T04:53:49;100884.16;;;4.74;100.00
69153;BME280;56261;51.580;4.578;2024-01-06T04:56:15;100879.97;;;4.71;100.00
69153;BME280;56261;51.580;4.578;2024-01-06T04:58:40;100872.16;;;4.70;100.00
69153;BME280;56261;51.580;4.578;2024-01-06T05:01:05;100881.81;;;4.60;100.00
69153;BME280;56261;51.580;4.578;2024-01-06T05:03:31;100891.59;;;4.69;100.00
69153;BME280;56261;51.580;4.578;2024-01-06T05:05:56;100897.16;;;4.66;100.00
69153;BME280;56261;51.580;4.578;2024-01-06T05:08:22;100900.63;;;4.66;100.00
69153;BME280;56261;51.580;4.578;2024-01-06T05:10:52;100910.41;;;4.75;100.00
69153;BME280;56261;51.580;4.578;2024-01-06T05:13:17;100911.78;;;4.70;100.00
69153;BME280;56261;51.580;4.578;2024-01-06T05:15:43;100912.94;;;4.77;100.00
69153;BME280;56261;51.580;4.578;2024-01-06T05:18:08;100908.31;;;4.69;100.00
69153;BME280;56261;51.580;4.578;2024-01-06T05:20:33;100914.81;;;4.65;100.00
69153;BME280;56261;51.580;4.578;2024-01-06T05:22:59;100912.50;;;4.72;100.00
69153;BME280;56261;51.580;4.578;2024-01-06T05:25:24;100919.31;;;4.74;100.00
69153;BME280;56261;51.580;4.578;2024-01-06T05:27:49;100919.31;;;4.74;100.00
69153;BME280;56261;51.580;4.578;2024-01-06T05:30:15;100926.28;;;4.75;100.00
69153;BME280;56261;51.580;4.578;2024-01-06T05:32:40;100921.53;;;4.69;100.00
69153;BME280;56261;51.580;4.578;2024-01-06T05:35:06;100930.28;;;4.70;100.00
69153;BME280;56261;51.580;4.578;2024-01-06T05:37:32;100906.06;;;4.65;100.00
69153;BME280;56261;51.580;4.578;2024-01-06T05:39:57;100915.69;;;4.75;100.00
69153;BME280;56261;51.580;4.578;2024-01-06T05:42:26;100926.81;;;4.69;100.00
69153;BME280;56261;51.580;4.578;2024-01-06T05:44:52;100935.63;;;4.79;100.00
69153;BME280;56261;51.580;4.578;2024-01-06T05:47:17;100934.47;;;4.72;100.00
69153;BME280;56261;51.580;4.578;2024-01-06T05:49:43;100934.91;;;4.77;100.00
69153;BME280;56261;51.580;4.578;2024-01-06T05:52:11;100944.59;;;4.67;100.00
69153;BME280;56261;51.580;4.578;2024-01-06T05:54:40;100944.91;;;4.74;100.00
69153;BME280;56261;51.580;4.578;2024-01-06T05:57:07;100939.69;;;4.63;100.00
69153;BME280;56261;51.580;4.578;2024-01-06T05:59:33;100955.88;;;4.69;100.00
69153;BME280;56261;51.580;4.578;2024-01-06T06:01:58;100962.19;;;4.78;100.00
69153;BME280;56261;51.580;4.578;2024-01-06T06:04:24;100953.94;;;4.71;100.00
69153;BME280;56261;51.580;4.578;2024-01-06T06:06:49;100957.63;;;4.80;100.00
69153;BME280;56261;51.580;4.578;2024-01-06T06:09:14;100962.91;;;4.80;100.00
69153;BME280;56261;51.580;4.578;2024-01-06T06:11:40;100967.97;;;4.72;100.00
69153;BME280;56261;51.580;4.578;2024-01-06T06:14:06;100971.47;;;4.72;100.00
69153;BME280;56261;51.580;4.578;2024-01-06T06:16:31;100978.09;;;4.67;100.00
69153;BME280;56261;51.580;4.578;2024-01-06T06:18:56;100978.66;;;4.70;100.00
69153;BME280;56261;51.580;4.578;2024-01-06T06:21:23;100991.88;;;4.70;100.00
69153;BME280;56261;51.580;4.578;2024-01-06T06:23:49;100997.00;;;4.62;100.00
69153;BME280;56261;51.580;4.578;2024-01-06T06:26:14;100985.72;;;4.60;100.00
69153;BME280;56261;51.580;4.578;2024-01-06T06:28:39;100995.88;;;4.65;100.00
69153;BME280;56261;51.580;4.578;2024-01-06T06:31:05;101009.22;;;4.63;100.00
69153;BME280;56261;51.580;4.578;2024-01-06T06:33:30;101010.75;;;4.66;100.00
69153;BME280;56261;51.580;4.578;2024-01-06T06:35:55;101008.50;;;4.61;100.00
69153;BME280;56261;51.580;4.578;2024-01-06T06:38:21;101015.66;;;4.70;100.00
69153;BME280;56261;51.580;4.578;2024-01-06T06:40:46;101027.97;;;4.60;100.00
69153;BME280;56261;51.580;4.578;2024-01-06T06:43:13;101026.19;;;4.49;100.00
69153;BME280;56261;51.580;4.578;2024-01-06T06:45:38;101033.41;;;4.47;100.00
69153;BME280;56261;51.580;4.578;2024-01-06T06:48:04;101031.59;;;4.48;100.00
69153;BME280;56261;51.580;4.578;2024-01-06T06:50:29;101032.19;;;4.51;100.00
69153;BME280;56261;51.580;4.578;2024-01-06T06:52:55;101035.66;;;4.52;100.00
69153;BME280;56261;51.580;4.578;2024-01-06T06:55:20;101048.66;;;4.44;100.00
69153;BME280;56261;51.580;4.578;2024-01-06T06:57:46;101051.28;;;4.44;100.00
69153;BME280;56261;51.580;4.578;2024-01-06T07:00:11;101062.34;;;4.49;100.00
69153;BME280;56261;51.580;4.578;2024-01-06T07:02:37;101063.91;;;4.51;100.00
69153;BME280;56261;51.580;4.578;2024-01-06T07:05:03;101063.03;;;4.51;100.00
69153;BME280;56261;51.580;4.578;2024-01-06T07:07:32;101070.50;;;4.46;100.00
69153;BME280;56261;51.580;4.578;2024-01-06T07:09:57;101073.94;;;4.57;100.00
69153;BME280;56261;51.580;4.578;2024-01-06T07:12:23;101082.16;;;4.43;100.00
69153;BME280;56261;51.580;4.578;2024-01-06T07:14:48;101085.13;;;4.50;100.00
69153;BME280;56261;51.580;4.578;2024-01-06T07:17:13;101094.03;;;4.37;100.00
69153;BME280;56261;51.580;4.578;2024-01-06T07:19:39;101087.09;;;4.25;100.00
69153;BME280;56261;51.580;4.578;2024-01-06T07:22:04;101096.00;;;4.24;100.00
69153;BME280;56261;51.580;4.578;2024-01-06T07:24:30;101096.47;;;4.29;100.00
69153;BME280;56261;51.580;4.578;2024-01-06T07:26:55;101102.47;;;4.31;100.00
69153;BME280;56261;51.580;4.578;2024-01-06T07:29:21;101101.28;;;4.35;100.00
69153;BME280;56261;51.580;4.578;2024-01-06T07:31:46;101100.28;;;4.36;100.00
69153;BME280;56261;51.580;4.578;2024-01-06T07:34:12;101118.31;;;4.31;100.00
69153;BME280;56261;51.580;4.578;2024-01-06T07:36:38;101104.63;;;4.26;100.00
69153;BME280;56261;51.580;4.578;2024-01-06T07:39:05;101119.50;;;4.27;100.00
69153;BME280;56261;51.580;4.578;2024-01-06T07:41:31;101111.13;;;4.11;100.00
69153;BME280;56261;51.580;4.578;2024-01-06T07:43:57;101135.34;;;4.27;100.00
69153;BME280;56261;51.580;4.578;2024-01-06T07:46:23;101130.06;;;4.27;100.00
69153;BME280;56261;51.580;4.578;2024-01-06T07:48:48;101136.66;;;4.33;100.00
69153;BME280;56261;51.580;4.578;2024-01-06T07:51:14;101135.81;;;4.32;100.00
69153;BME280;56261;51.580;4.578;2024-01-06T07:53:39;101144.22;;;4.26;100.00
69153;BME280;56261;51.580;4.578;2024-01-06T07:56:05;101141.47;;;4.28;100.00
69153;BME280;56261;51.580;4.578;2024-01-06T07:58:30;101157.56;;;4.36;100.00
69153;BME280;56261;51.580;4.578;2024-01-06T08:00:56;101155.84;;;4.35;100.00
69153;BME280;56261;51.580;4.578;2024-01-06T08:03:22;101154.41;;;4.20;100.00
69153;BME280;56261;51.580;4.578;2024-01-06T08:05:47;101160.66;;;4.30;100.00
69153;BME280;56261;51.580;4.578;2024-01-06T08:08:13;101157.78;;;4.22;100.00
69153;BME280;56261;51.580;4.578;2024-01-06T08:10:42;101165.22;;;4.28;100.00
69153;BME280;56261;51.580;4.578;2024-01-06T08:13:07;101162.47;;;4.29;100.00
69153;BME280;56261;51.580;4.578;2024-01-06T08:15:32;101166.31;;;4.25;100.00
69153;BME280;56261;51.580;4.578;2024-01-06T08:17:58;101170.97;;;4.33;100.00
69153;BME280;56261;51.580;4.578;2024-01-06T08:20:23;101177.13;;;4.22;100.00
69153;BME280;56261;51.580;4.578;2024-01-06T08:22:49;101175.53;;;4.20;100.00
69153;BME280;56261;51.580;4.578;2024-01-06T08:25:14;101181.31;;;4.25;100.00
69153;BME280;56261;51.580;4.578;2024-01-06T08:27:42;101177.97;;;4.23;100.00
69153;BME280;56261;51.580;4.578;2024-01-06T08:30:08;101187.44;;;4.25;100.00
69153;BME280;56261;51.580;4.578;2024-01-06T08:32:33;101187.78;;;4.21;100.00
69153;BME280;56261;51.580;4.578;2024-01-06T08:34:59;101195.00;;;4.19;100.00
69153;BME280;56261;51.580;4.578;2024-01-06T08:37:24;101201.56;;;4.13;100.00
69153;BME280;56261;51.580;4.578;2024-01-06T08:39:50;101205.19;;;4.12;100.00
69153;BME280;56261;51.580;4.578;2024-01-06T08:42:15;101216.34;;;4.04;100.00
69153;BME280;56261;51.580;4.578;2024-01-06T08:44:40;101220.28;;;4.10;100.00
69153;BME280;56261;51.580;4.578;2024-01-06T08:47:06;101215.13;;;4.20;100.00
69153;BME280;56261;51.580;4.578;2024-01-06T08:49:31;101212.50;;;4.20;100.00
69153;BME280;56261;51.580;4.578;2024-01-06T08:51:58;101221.13;;;4.10;100.00
69153;BME280;56261;51.580;4.578;2024-01-06T08:54:23;101232.41;;;4.12;100.00
69153;BME280;56261;51.580;4.578;2024-01-06T08:56:48;101230.50;;;4.14;100.00
69153;BME280;56261;51.580;4.578;2024-01-06T08:59:14;101236.63;;;4.15;100.00
69153;BME280;56261;51.580;4.578;2024-01-06T09:01:39;101231.13;;;4.18;100.00
69153;BME280;56261;51.580;4.578;2024-01-06T09:04:04;101235.06;;;4.12;100.00
69153;BME280;56261;51.580;4.578;2024-01-06T09:06:31;101243.94;;;4.11;100.00
69153;BME280;56261;51.580;4.578;2024-01-06T09:08:57;101252.81;;;4.10;100.00
69153;BME280;56261;51.580;4.578;2024-01-06T09:11:22;101252.34;;;4.16;100.00
69153;BME280;56261;51.580;4.578;2024-01-06T09:13:48;101258.00;;;4.23;100.00
69153;BME280;56261;51.580;4.578;2024-01-06T09:16:13;101264.34;;;4.09;100.00
69153;BME280;56261;51.580;4.578;2024-01-06T09:18:39;101264.34;;;4.09;100.00
69153;BME280;56261;51.580;4.578;2024-01-06T09:21:05;101266.88;;;4.11;100.00
69153;BME280;56261;51.580;4.578;2024-01-06T09:23:30;101263.72;;;4.06;100.00
69153;BME280;56261;51.580;4.578;2024-01-06T09:25:57;101266.25;;;4.07;100.00
69153;BME280;56261;51.580;4.578;2024-01-06T09:28:23;101280.53;;;4.16;100.00
69153;BME280;56261;51.580;4.578;2024-01-06T09:30:48;101277.44;;;4.22;100.00
69153;BME280;56261;51.580;4.578;2024-01-06T09:33:14;101286.09;;;4.24;100.00
69153;BME280;56261;51.580;4.578;2024-01-06T09:35:41;101281.19;;;4.31;100.00
69153;BME280;56261;51.580;4.578;2024-01-06T09:38:07;101289.94;;;4.31;100.00
69153;BME280;56261;51.580;4.578;2024-01-06T09:40:34;101291.25;;;4.37;100.00
69153;BME280;56261;51.580;4.578;2024-01-06T09:42:59;101299.53;;;4.32;100.00
69153;BME280;56261;51.580;4.578;2024-01-06T09:45:25;101293.06;;;4.48;100.00
69153;BME280;56261;51.580;4.578;2024-01-06T09:47:51;101306.16;;;4.49;100.00
69153;BME280;56261;51.580;4.578;2024-01-06T09:50:20;101306.50;;;4.33;100.00
69153;BME280;56261;51.580;4.578;2024-01-06T09:52:47;101306.25;;;4.36;100.00
69153;BME280;56261;51.580;4.578;2024-01-06T09:55:24;101310.56;;;4.37;100.00
69153;BME280;56261;51.580;4.578;2024-01-06T09:57:53;101316.72;;;4.38;100.00
69153;BME280;56261;51.580;4.578;2024-01-06T10:00:19;101317.78;;;4.35;100.00
69153;BME280;56261;51.580;4.578;2024-01-06T10:02:45;101319.00;;;4.43;100.00
69153;BME280;56261;51.580;4.578;2024-01-06T10:05:12;101317.56;;;4.50;100.00
69153;BME280;56261;51.580;4.578;2024-01-06T10:07:41;101326.31;;;4.50;100.00
69153;BME280;56261;51.580;4.578;2024-01-06T10:10:07;101329.56;;;4.54;100.00
69153;BME280;56261;51.580;4.578;2024-01-06T10:12:32;101328.25;;;4.60;100.00
69153;BME280;56261;51.580;4.578;2024-01-06T10:14:58;101336.78;;;4.63;100.00
69153;BME280;56261;51.580;4.578;2024-01-06T10:17:23;101332.81;;;4.69;100.00
69153;BME280;56261;51.580;4.578;2024-01-06T10:19:49;101338.34;;;4.54;100.00
69153;BME280;56261;51.580;4.578;2024-01-06T10:22:14;101330.31;;;4.56;100.00
69153;BME280;56261;51.580;4.578;2024-01-06T10:24:40;101338.94;;;4.58;100.00
69153;BME280;56261;51.580;4.578;2024-01-06T10:27:06;101348.44;;;4.61;100.00
69153;BME280;56261;51.580;4.578;2024-01-06T10:29:31;101346.03;;;4.69;100.00
69153;BME280;56261;51.580;4.578;2024-01-06T10:31:58;101339.44;;;4.74;100.00
69153;BME280;56261;51.580;4.578;2024-01-06T10:34:24;101345.69;;;4.62;100.00
69153;BME280;56261;51.580;4.578;2024-01-06T10:36:50;101346.72;;;4.60;100.00
69153;BME280;56261;51.580;4.578;2024-01-06T10:39:19;101358.91;;;4.73;100.00
69153;BME280;56261;51.580;4.578;2024-01-06T10:41:46;101355.88;;;4.67;100.00
69153;BME280;56261;51.580;4.578;2024-01-06T10:44:14;101362.00;;;4.56;100.00
69153;BME280;56261;51.580;4.578;2024-01-06T10:46:41;101359.47;;;4.54;100.00
69153;BME280;56261;51.580;4.578;2024-01-06T10:49:08;101350.47;;;4.57;100.00
69153;BME280;56261;51.580;4.578;2024-01-06T10:51:37;101362.25;;;4.75;100.00
69153;BME280;56261;51.580;4.578;2024-01-06T10:54:02;101359.59;;;4.64;100.00
69153;BME280;56261;51.580;4.578;2024-01-06T10:56:29;101371.47;;;4.58;100.00
69153;BME280;56261;51.580;4.578;2024-01-06T10:58:55;101367.75;;;4.61;100.00
69153;BME280;56261;51.580;4.578;2024-01-06T11:01:23;101372.66;;;4.54;100.00
69153;BME280;56261;51.580;4.578;2024-01-06T11:03:50;101371.47;;;4.58;100.00
69153;BME280;56261;51.580;4.578;2024-01-06T11:06:16;101374.00;;;4.49;100.00
69153;BME280;56261;51.580;4.578;2024-01-06T11:09:04;101378.31;;;4.50;100.00
69153;BME280;56261;51.580;4.578;2024-01-06T11:11:31;101385.53;;;4.59;100.00
69153;BME280;56261;51.580;4.578;2024-01-06T11:14:19;101385.53;;;4.59;100.00
69153;BME280;56261;51.580;4.578;2024-01-06T11:16:45;101391.50;;;4.50;100.00
69153;BME280;56261;51.580;4.578;2024-01-06T11:22:27;101402.31;;;4.47;100.00
69153;BME280;56261;51.580;4.578;2024-01-06T11:24:55;101406.16;;;4.43;100.00
69153;BME280;56261;51.580;4.578;2024-01-06T11:27:27;101395.06;;;4.37;100.00
69153;BME280;56261;51.580;4.578;2024-01-06T11:30:00;101406.97;;;4.43;100.00
69153;BME280;56261;51.580;4.578;2024-01-06T11:32:31;101403.84;;;4.38;100.00
69153;BME280;56261;51.580;4.578;2024-01-06T11:35:10;101402.66;;;4.42;100.00
69153;BME280;56261;51.580;4.578;2024-01-06T11:42:41;101400.50;;;4.47;100.00
69153;BME280;56261;51.580;4.578;2024-01-06T11:45:07;101394.50;;;4.45;100.00
69153;BME280;56261;51.580;4.578;2024-01-06T11:47:36;101413.38;;;4.52;100.00
69153;BME280;56261;51.580;4.578;2024-01-06T11:50:03;101402.84;;;4.63;100.00
69153;BME280;56261;51.580;4.578;2024-01-06T11:52:33;101405.09;;;4.56;100.00
69153;BME280;56261;51.580;4.578;2024-01-06T11:54:59;101410.84;;;4.50;100.00
69153;BME280;56261;51.580;4.578;2024-01-06T11:57:28;101397.03;;;4.47;100.00
69153;BME280;56261;51.580;4.578;2024-01-06T11:59:54;101409.28;;;4.48;100.00
69153;BME280;56261;51.580;4.578;2024-01-06T12:02:20;101411.63;;;4.40;100.00
69153;BME280;56261;51.580;4.578;2024-01-06T12:04:53;101409.25;;;4.36;100.00
69153;BME280;56261;51.580;4.578;2024-01-06T12:07:20;101413.34;;;4.41;100.00
69153;BME280;56261;51.580;4.578;2024-01-06T12:09:51;101415.28;;;4.50;100.00
69153;BME280;56261;51.580;4.578;2024-01-06T12:12:25;101413.03;;;4.56;100.00
69153;BME280;56261;51.580;4.578;2024-01-06T12:14:50;101414.81;;;4.45;100.00
69153;BME280;56261;51.580;4.578;2024-01-06T12:17:16;101413.09;;;4.44;100.00
69153;BME280;56261;51.580;4.578;2024-01-06T12:19:42;101415.19;;;4.51;100.00
69153;BME280;56261;51.580;4.578;2024-01-06T12:22:12;101420.91;;;4.45;100.00
69153;BME280;56261;51.580;4.578;2024-01-06T12:24:41;101407.81;;;4.44;100.00
69153;BME280;56261;51.580;4.578;2024-01-06T12:27:10;101421.16;;;4.42;100.00
69153;BME280;56261;51.580;4.578;2024-01-06T12:29:40;101411.19;;;4.46;100.00
69153;BME280;56261;51.580;4.578;2024-01-06T12:32:07;101415.38;;;4.48;100.00
69153;BME280;56261;51.580;4.578;2024-01-06T12:34:34;101411.44;;;4.43;100.00
69153;BME280;56261;51.580;4.578;2024-01-06T12:37:00;101410.91;;;4.37;100.00
69153;BME280;56261;51.580;4.578;2024-01-06T12:39:28;101412.50;;;4.40;100.00
69153;BME280;56261;51.580;4.578;2024-01-06T12:41:55;101412.72;;;4.37;100.00
69153;BME280;56261;51.580;4.578;2024-01-06T12:44:20;101405.75;;;4.36;100.00
69153;BME280;56261;51.580;4.578;2024-01-06T12:46:46;101410.81;;;4.39;100.00
69153;BME280;56261;51.580;4.578;2024-01-06T12:49:12;101406.75;;;4.46;100.00
69153;BME280;56261;51.580;4.578;2024-01-06T12:51:37;101411.81;;;4.49;100.00
69153;BME280;56261;51.580;4.578;2024-01-06T12:54:03;101410.97;;;4.49;100.00